Time;durP1;ratioP1;P1;durP2;ratioP2;P2;SDS_P1;SDS_P2;PMS_P1;PMS_P2;Temp;Humidity;BMP_temperature;BMP_pressure;BME280_temperature;BME280_humidity;BME280_pressure;Samples;Min_cycle;Max_cycle;Signal;HPM_P1;HPM_P2
2021/03/13 00:01:14;;;;;;;1.52;0.60;;;22.60;45.20;;;;;;5024449;28;20030;-63
2021/03/13 00:03:40;;;;;;;1.10;0.50;;;22.60;45.20;;;;;;5019289;28;20036;-63
2021/03/13 00:06:07;;;;;;;1.40;0.70;;;22.60;45.20;;;;;;5029974;28;20029;-61
2021/03/13 00:08:37;;;;;;;0.70;0.52;;;22.60;45.30;;;;;;5029074;28;20472;-61
2021/03/13 00:11:04;;;;;;;0.90;0.50;;;22.60;45.30;;;;;;5027215;28;20026;-61
2021/03/13 00:13:31;;;;;;;1.20;0.60;;;22.60;45.30;;;;;;5028140;28;20142;-62
2021/03/13 00:15:57;;;;;;;1.05;0.60;;;22.50;45.30;;;;;;5027289;28;20034;-62
2021/03/13 00:18:22;;;;;;;1.10;0.60;;;22.50;45.30;;;;;;5027896;28;20038;-65
2021/03/13 00:20:48;;;;;;;1.08;0.63;;;22.50;45.30;;;;;;5043883;28;20033;-63
2021/03/13 00:23:14;;;;;;;1.13;0.63;;;22.50;45.40;;;;;;5029815;28;20051;-64
2021/03/13 00:25:40;;;;;;;1.00;0.50;;;22.50;45.40;;;;;;5025592;28;20045;-64
2021/03/13 00:28:07;;;;;;;1.08;0.70;;;22.50;45.40;;;;;;5023867;28;20030;-63
2021/03/13 00:30:42;;;;;;;0.88;0.60;;;22.50;45.40;;;;;;5028035;28;20025;-63
2021/03/13 00:33:16;;;;;;;0.80;0.60;;;22.50;45.50;;;;;;5033643;28;20063;-64
2021/03/13 00:35:44;;;;;;;0.88;0.52;;;22.40;45.40;;;;;;5027444;28;20028;-64
2021/03/13 00:38:10;;;;;;;0.65;0.50;;;22.40;45.40;;;;;;5020270;28;20407;-64
2021/03/13 00:40:38;;;;;;;0.73;0.50;;;22.40;45.40;;;;;;5026654;28;20124;-65
2021/03/13 00:43:05;;;;;;;1.10;0.65;;;22.40;45.50;;;;;;5027672;28;20044;-66
2021/03/13 00:45:31;;;;;;;0.73;0.50;;;22.40;45.50;;;;;;5026338;28;20388;-63
2021/03/13 00:47:58;;;;;;;0.68;0.50;;;22.40;45.50;;;;;;5027954;28;20034;-66
2021/03/13 00:50:26;;;;;;;1.55;0.52;;;22.40;45.50;;;;;;5028125;28;20033;-64
2021/03/13 00:52:52;;;;;;;0.60;0.45;;;22.40;45.50;;;;;;5023884;28;20474;-66
2021/03/13 00:55:18;;;;;;;0.57;0.45;;;22.40;45.60;;;;;;5027822;28;20037;-65
2021/03/13 00:57:44;;;;;;;1.40;0.50;;;22.30;45.50;;;;;;5038510;28;20151;-64
2021/03/13 01:00:13;;;;;;;1.15;0.50;;;22.30;45.50;;;;;;5025048;28;20060;-64
2021/03/13 01:02:38;;;;;;;0.82;0.50;;;22.30;45.50;;;;;;5017525;28;20041;-65
2021/03/13 01:05:06;;;;;;;1.33;0.70;;;22.30;45.50;;;;;;5042943;28;20041;-61
2021/03/13 01:07:33;;;;;;;1.30;0.63;;;22.30;45.50;;;;;;5042823;28;20057;-61
2021/03/13 01:09:59;;;;;;;1.00;0.60;;;22.30;45.60;;;;;;5027070;28;20137;-62
2021/03/13 01:12:25;;;;;;;0.65;0.50;;;22.30;45.60;;;;;;5034848;28;20575;-64
2021/03/13 01:14:50;;;;;;;1.02;0.50;;;22.30;45.60;;;;;;5026071;28;20041;-61
2021/03/13 01:17:16;;;;;;;0.60;0.50;;;22.30;45.60;;;;;;5028242;28;20041;-62
2021/03/13 01:19:42;;;;;;;1.00;0.60;;;22.30;45.60;;;;;;5026916;28;20144;-62
2021/03/13 01:22:08;;;;;;;1.65;0.65;;;22.30;45.60;;;;;;5026956;28;20444;-62
2021/03/13 01:24:34;;;;;;;0.77;0.57;;;22.20;45.60;;;;;;5025749;28;20068;-63
2021/03/13 01:26:59;;;;;;;0.98;0.60;;;22.20;45.60;;;;;;5021366;28;20033;-62
2021/03/13 01:29:25;;;;;;;1.00;0.60;;;22.20;45.60;;;;;;5019285;28;20799;-62
2021/03/13 01:31:51;;;;;;;0.77;0.52;;;22.20;45.60;;;;;;5017200;28;20030;-62
2021/03/13 01:34:17;;;;;;;0.77;0.50;;;22.20;45.60;;;;;;5025838;28;20029;-62
2021/03/13 01:36:42;;;;;;;1.10;0.50;;;22.20;45.60;;;;;;5027507;28;20098;-62
2021/03/13 01:39:09;;;;;;;0.88;0.50;;;22.20;45.60;;;;;;5026257;28;20037;-61
2021/03/13 01:41:35;;;;;;;1.10;0.43;;;22.20;45.60;;;;;;5025614;28;20112;-62
2021/03/13 01:44:00;;;;;;;0.70;0.50;;;22.20;45.60;;;;;;5025097;28;20124;-61
2021/03/13 01:46:26;;;;;;;1.27;0.60;;;22.20;45.60;;;;;;5024657;28;20487;-63
2021/03/13 01:48:53;;;;;;;1.02;0.60;;;22.20;45.70;;;;;;5040239;28;20025;-64
2021/03/13 01:51:19;;;;;;;0.82;0.50;;;22.10;45.60;;;;;;5038439;28;21337;-62
2021/03/13 01:53:51;;;;;;;0.68;0.52;;;22.10;45.70;;;;;;5027222;28;20109;-63
2021/03/13 01:56:17;;;;;;;0.57;0.50;;;22.10;45.60;;;;;;5038741;28;20029;-62
2021/03/13 01:58:43;;;;;;;0.47;0.47;;;22.10;45.70;;;;;;5026515;28;20498;-61
2021/03/13 02:01:10;;;;;;;0.57;0.40;;;22.10;45.70;;;;;;5016954;28;20057;-61
2021/03/13 02:03:43;;;;;;;0.73;0.65;;;22.10;45.70;;;;;;5023752;28;20384;-63
2021/03/13 02:06:09;;;;;;;0.65;0.50;;;22.10;45.70;;;;;;5026730;28;20459;-62
2021/03/13 02:08:54;;;;;;;1.23;0.70;;;22.10;45.70;;;;;;5025480;28;20097;-62
2021/03/13 02:11:44;;;;;;;0.63;0.40;;;22.10;45.70;;;;;;5025044;28;20025;-62
2021/03/13 02:14:13;;;;;;;0.57;0.50;;;22.10;45.70;;;;;;5023984;28;20032;-61
2021/03/13 02:17:10;;;;;;;1.50;0.60;;;22.00;45.70;;;;;;5024788;28;20037;-64
2021/03/13 02:19:52;;;;;;;0.80;0.40;;;22.00;45.70;;;;;;5019542;28;20045;-61
2021/03/13 02:22:23;;;;;;;0.43;0.38;;;22.00;45.70;;;;;;5026724;28;20034;-62
2021/03/13 02:24:59;;;;;;;1.02;0.50;;;22.00;45.70;;;;;;5026004;28;20396;-62
2021/03/13 02:27:52;;;;;;;0.50;0.50;;;22.00;45.80;;;;;;5025457;28;20029;-62
2021/03/13 02:30:25;;;;;;;1.33;0.60;;;22.00;45.80;;;;;;5014161;28;20049;-63
2021/03/13 02:33:21;;;;;;;1.23;0.40;;;22.00;45.80;;;;;;5026079;28;20033;-61
2021/03/13 02:35:56;;;;;;;0.70;0.50;;;22.00;45.80;;;;;;5024921;28;20095;-62
2021/03/13 02:38:31;;;;;;;0.50;0.50;;;22.00;45.80;;;;;;5027353;28;20025;-61
2021/03/13 02:41:02;;;;;;;0.60;0.47;;;22.00;45.80;;;;;;5025722;28;20500;-63
2021/03/13 02:43:29;;;;;;;0.60;0.50;;;22.00;45.80;;;;;;5021226;28;20478;-63
2021/03/13 02:45:58;;;;;;;0.65;0.60;;;21.90;45.80;;;;;;5025171;28;20132;-61
2021/03/13 02:48:25;;;;;;;0.80;0.60;;;22.00;45.80;;;;;;5026130;28;20033;-61
2021/03/13 02:50:52;;;;;;;1.17;0.50;;;22.00;45.80;;;;;;5025150;28;20029;-62
2021/03/13 02:53:20;;;;;;;0.70;0.50;;;21.90;45.80;;;;;;5023844;28;20025;-62
2021/03/13 02:55:47;;;;;;;0.40;0.40;;;22.00;45.80;;;;;;5030473;28;20029;-62
2021/03/13 02:58:14;;;;;;;0.77;0.50;;;21.90;45.80;;;;;;5023260;28;20025;-62
2021/03/13 03:00:42;;;;;;;0.45;0.40;;;21.90;46.30;;;;;;5020329;28;20046;-62
2021/03/13 03:03:10;;;;;;;0.52;0.43;;;21.90;45.80;;;;;;5011883;28;20022;-63
2021/03/13 03:05:37;;;;;;;0.80;0.50;;;21.90;45.80;;;;;;5023581;28;20057;-63
2021/03/13 03:08:05;;;;;;;0.70;0.40;;;21.90;45.80;;;;;;5025590;28;20030;-62
2021/03/13 03:10:34;;;;;;;0.50;0.50;;;21.80;45.70;;;;;;5025915;28;20030;-62
2021/03/13 03:13:02;;;;;;;0.52;0.40;;;21.90;45.70;;;;;;5022336;28;20029;-62
2021/03/13 03:15:30;;;;;;;0.60;0.40;;;21.80;45.70;;;;;;5019701;28;20088;-62
2021/03/13 03:17:59;;;;;;;0.52;0.52;;;21.90;45.70;;;;;;5024960;28;20045;-62
2021/03/13 03:20:26;;;;;;;0.60;0.50;;;21.90;45.70;;;;;;5026417;28;20025;-63
2021/03/13 03:22:53;;;;;;;1.63;0.40;;;21.90;45.80;;;;;;5025216;28;20603;-62
2021/03/13 03:25:18;;;;;;;0.50;0.50;;;21.80;45.70;;;;;;5025191;28;20032;-64
2021/03/13 03:27:50;;;;;;;0.70;0.60;;;21.80;45.70;;;;;;5026593;28;20030;-63
2021/03/13 03:30:24;;;;;;;0.60;0.50;;;21.80;45.70;;;;;;5024497;28;20026;-63
2021/03/13 03:32:50;;;;;;;0.50;0.50;;;21.80;45.70;;;;;;5026709;28;20036;-63
2021/03/13 03:35:18;;;;;;;0.47;0.40;;;21.80;45.70;;;;;;5027666;28;20372;-63
2021/03/13 03:37:45;;;;;;;0.73;0.50;;;21.80;45.70;;;;;;5025585;28;20099;-64
2021/03/13 03:40:12;;;;;;;0.55;0.45;;;21.80;45.70;;;;;;5025026;28;20034;-62
2021/03/13 03:43:06;;;;;;;0.40;0.40;;;21.80;45.60;;;;;;5028644;28;20784;-62
2021/03/13 03:45:33;;;;;;;1.17;0.50;;;21.80;45.60;;;;;;5011956;28;20356;-63
2021/03/13 03:48:09;;;;;;;0.40;0.30;;;21.80;45.60;;;;;;5030054;28;20483;-61
2021/03/13 03:50:36;;;;;;;0.75;0.40;;;21.70;45.50;;;;;;5010256;28;20861;-63
2021/03/13 03:53:03;;;;;;;0.40;0.40;;;21.70;45.60;;;;;;5016736;28;20052;-63
2021/03/13 03:55:30;;;;;;;0.75;0.47;;;21.70;45.50;;;;;;5028795;28;20025;-64
2021/03/13 03:57:57;;;;;;;0.50;0.50;;;21.70;45.50;;;;;;5027899;28;20116;-64
2021/03/13 04:00:24;;;;;;;0.57;0.40;;;21.70;45.50;;;;;;5025838;28;20028;-63
2021/03/13 04:02:51;;;;;;;0.70;0.50;;;21.70;45.50;;;;;;5024884;28;20094;-62
2021/03/13 04:05:18;;;;;;;0.57;0.40;;;21.70;45.50;;;;;;5026242;28;20029;-64
2021/03/13 04:07:45;;;;;;;0.52;0.43;;;21.70;45.50;;;;;;5037672;28;20033;-62
2021/03/13 04:10:13;;;;;;;0.40;0.40;;;21.70;45.50;;;;;;5029426;28;20033;-62
2021/03/13 04:12:41;;;;;;;0.37;0.37;;;21.70;46.00;;;;;;5019808;28;20038;-64
2021/03/13 04:15:09;;;;;;;0.40;0.40;;;21.70;45.40;;;;;;5027908;28;20044;-62
2021/03/13 04:17:37;;;;;;;0.88;0.50;;;21.70;45.40;;;;;;5020009;28;20500;-64
2021/03/13 04:20:04;;;;;;;1.02;0.57;;;21.60;45.40;;;;;;5025875;28;20029;-62
2021/03/13 04:22:31;;;;;;;0.82;0.50;;;21.70;45.40;;;;;;5029742;28;20021;-64
2021/03/13 04:24:59;;;;;;;0.70;0.57;;;21.60;45.40;;;;;;5028850;28;20029;-64
2021/03/13 04:27:25;;;;;;;0.40;0.40;;;21.60;45.30;;;;;;5027087;28;20492;-63
2021/03/13 04:29:51;;;;;;;0.30;0.30;;;21.60;45.30;;;;;;5027331;28;20036;-63
2021/03/13 04:32:17;;;;;;;0.73;0.43;;;21.60;45.20;;;;;;5028505;28;20033;-62
2021/03/13 04:34:45;;;;;;;0.57;0.50;;;21.60;45.20;;;;;;5027825;28;20045;-63
2021/03/13 04:37:11;;;;;;;0.30;0.30;;;21.60;45.20;;;;;;5023193;28;20033;-65
2021/03/13 04:39:41;;;;;;;1.42;0.30;;;21.60;45.20;;;;;;5022755;28;20033;-62
2021/03/13 04:42:07;;;;;;;0.68;0.43;;;21.60;45.20;;;;;;5027608;28;20033;-64
2021/03/13 04:44:33;;;;;;;0.30;0.30;;;21.60;45.20;;;;;;5025449;28;20037;-63
2021/03/13 04:46:59;;;;;;;1.63;0.40;;;21.60;45.10;;;;;;5027317;28;20029;-63
2021/03/13 04:49:26;;;;;;;0.68;0.40;;;21.60;45.10;;;;;;5026714;28;20025;-64
2021/03/13 04:51:52;;;;;;;0.60;0.50;;;21.50;45.60;;;;;;5028103;28;20029;-63
2021/03/13 04:54:18;;;;;;;0.80;0.50;;;21.50;45.00;;;;;;5027356;28;20045;-64
2021/03/13 04:56:43;;;;;;;0.50;0.45;;;21.60;45.00;;;;;;5028619;28;20065;-64
2021/03/13 04:59:09;;;;;;;0.32;0.32;;;21.50;45.00;;;;;;5027627;28;20036;-64
2021/03/13 05:01:34;;;;;;;0.43;0.43;;;21.50;45.00;;;;;;5026646;28;20048;-62
2021/03/13 05:04:00;;;;;;;0.40;0.40;;;21.50;45.00;;;;;;5026655;28;20097;-62
2021/03/13 05:06:26;;;;;;;0.30;0.30;;;21.50;44.90;;;;;;5023147;28;20022;-64
2021/03/13 05:08:51;;;;;;;0.73;0.40;;;21.50;44.90;;;;;;5012879;28;20056;-63
2021/03/13 05:11:17;;;;;;;0.68;0.40;;;21.50;44.90;;;;;;5017440;28;20052;-62
2021/03/13 05:13:44;;;;;;;0.30;0.30;;;21.50;44.90;;;;;;5026534;28;20033;-62
2021/03/13 05:16:09;;;;;;;0.50;0.40;;;21.50;44.90;;;;;;5024656;28;20057;-64
2021/03/13 05:18:38;;;;;;;0.52;0.40;;;21.50;44.90;;;;;;5029593;28;20693;-63
2021/03/13 05:21:04;;;;;;;0.40;0.40;;;21.50;44.90;;;;;;5028664;28;20034;-64
2021/03/13 05:23:30;;;;;;;0.55;0.30;;;21.50;44.90;;;;;;5027377;28;20040;-63
2021/03/13 05:25:55;;;;;;;0.40;0.40;;;21.40;44.90;;;;;;5024859;28;20041;-64
2021/03/13 05:28:21;;;;;;;0.50;0.40;;;21.50;44.90;;;;;;5026905;28;20026;-63
2021/03/13 05:30:46;;;;;;;0.50;0.50;;;21.50;44.90;;;;;;5023871;28;20112;-63
2021/03/13 05:33:12;;;;;;;0.40;0.40;;;21.40;44.80;;;;;;5027805;28;20420;-64
2021/03/13 05:35:39;;;;;;;0.30;0.30;;;21.40;44.80;;;;;;5025893;28;20413;-63
2021/03/13 05:38:05;;;;;;;0.43;0.40;;;21.40;44.80;;;;;;5028119;28;20501;-63
2021/03/13 05:40:31;;;;;;;0.82;0.50;;;21.40;44.70;;;;;;5023567;28;20472;-62
2021/03/13 05:42:57;;;;;;;0.40;0.40;;;21.40;44.70;;;;;;5027547;28;20037;-63
2021/03/13 05:45:23;;;;;;;0.50;0.50;;;21.40;44.60;;;;;;5023519;28;20029;-63
2021/03/13 05:47:50;;;;;;;0.40;0.40;;;21.40;44.60;;;;;;5024984;28;20427;-62
2021/03/13 05:50:17;;;;;;;0.55;0.40;;;21.40;44.60;;;;;;5022137;28;20194;-62
2021/03/13 05:52:53;;;;;;;0.93;0.35;;;21.40;44.60;;;;;;5028100;28;20033;-64
2021/03/13 05:55:20;;;;;;;0.52;0.40;;;21.40;45.10;;;;;;5025005;28;20025;-64
2021/03/13 05:57:45;;;;;;;0.40;0.40;;;21.40;44.50;;;;;;5027674;28;20041;-62
2021/03/13 06:00:12;;;;;;;0.40;0.40;;;21.40;44.50;;;;;;5024506;28;20034;-62
2021/03/13 06:02:38;;;;;;;0.43;0.40;;;21.40;44.50;;;;;;5021761;28;20099;-63
2021/03/13 06:05:06;;;;;;;0.40;0.40;;;21.40;44.40;;;;;;5047748;28;20037;-63
2021/03/13 06:07:32;;;;;;;0.43;0.43;;;21.40;44.40;;;;;;5027932;28;20340;-63
2021/03/13 06:09:58;;;;;;;0.38;0.38;;;21.30;44.30;;;;;;5026747;28;20106;-63
2021/03/13 06:12:25;;;;;;;0.70;0.47;;;21.30;44.30;;;;;;5028123;28;20116;-64
2021/03/13 06:14:55;;;;;;;0.38;0.38;;;21.30;44.20;;;;;;5025036;28;20037;-64
2021/03/13 06:17:24;;;;;;;0.40;0.40;;;21.30;44.20;;;;;;5023528;28;20053;-63
2021/03/13 06:19:58;;;;;;;0.50;0.40;;;21.30;44.20;;;;;;5019361;28;20026;-63
2021/03/13 06:22:43;;;;;;;0.30;0.30;;;21.30;44.20;;;;;;5025991;28;20083;-64
2021/03/13 06:25:18;;;;;;;0.40;0.40;;;21.30;44.20;;;;;;5025211;28;20033;-63
2021/03/13 06:27:46;;;;;;;0.47;0.40;;;21.30;44.10;;;;;;5023435;28;20167;-62
2021/03/13 06:30:13;;;;;;;0.60;0.40;;;21.30;44.10;;;;;;5023833;28;20041;-64
2021/03/13 06:32:42;;;;;;;0.30;0.30;;;21.30;44.10;;;;;;5035369;28;20032;-64
2021/03/13 06:35:25;;;;;;;0.70;0.47;;;21.30;44.10;;;;;;5023092;28;20029;-63
2021/03/13 06:37:56;;;;;;;0.50;0.30;;;21.30;44.00;;;;;;5022002;28;20033;-63
2021/03/13 06:40:36;;;;;;;0.40;0.40;;;21.30;44.00;;;;;;5017768;28;20033;-62
2021/03/13 06:43:16;;;;;;;;;;;21.30;44.00;;;;;;5026367;28;20040;-62
2021/03/13 06:46:08;;;;;;;0.43;0.30;;;21.30;44.50;;;;;;5023925;28;19913;-62
2021/03/13 06:48:37;;;;;;;0.30;0.30;;;21.30;44.00;;;;;;5026491;28;20029;-64
2021/03/13 06:51:13;;;;;;;0.55;0.40;;;21.30;43.90;;;;;;5025730;28;20104;-63
2021/03/13 06:53:38;;;;;;;0.50;0.32;;;21.20;43.90;;;;;;5028399;28;20041;-63
2021/03/13 06:56:12;;;;;;;0.30;0.30;;;21.20;43.90;;;;;;5023829;28;20040;-63
2021/03/13 06:58:38;;;;;;;0.90;0.40;;;21.20;43.90;;;;;;5026296;28;20499;-64
2021/03/13 07:01:08;;;;;;;0.43;0.30;;;21.20;43.90;;;;;;5023163;28;20052;-63
2021/03/13 07:03:49;;;;;;;0.30;0.30;;;21.20;43.80;;;;;;5021191;28;20021;-62
2021/03/13 07:06:16;;;;;;;0.52;0.40;;;21.20;43.90;;;;;;5018975;28;20376;-64
2021/03/13 07:08:44;;;;;;;0.75;0.50;;;21.20;43.80;;;;;;5024206;28;20029;-63
2021/03/13 07:11:10;;;;;;;0.52;0.35;;;21.20;43.80;;;;;;5026556;28;20021;-65
2021/03/13 07:13:37;;;;;;;0.30;0.30;;;21.20;43.80;;;;;;5024278;28;20029;-63
2021/03/13 07:16:22;;;;;;;0.30;0.30;;;21.20;43.80;;;;;;5039928;28;20447;-62
2021/03/13 07:18:49;;;;;;;0.40;0.38;;;21.20;43.80;;;;;;5033815;28;20128;-62
2021/03/13 07:21:17;;;;;;;0.52;0.50;;;21.20;43.80;;;;;;5024153;28;20057;-64
2021/03/13 07:23:44;;;;;;;0.30;0.30;;;21.20;43.70;;;;;;5022475;28;20037;-61
2021/03/13 07:26:11;;;;;;;0.52;0.40;;;21.20;43.50;;;;;;5021407;28;20064;-63
2021/03/13 07:28:43;;;;;;;0.50;0.50;;;21.20;43.60;;;;;;5023961;28;20034;-63
2021/03/13 07:31:10;;;;;;;0.35;0.30;;;21.20;43.50;;;;;;5020054;28;20425;-62
2021/03/13 07:33:39;;;;;;;0.40;0.40;;;21.20;43.70;;;;;;5018965;28;20112;-63
2021/03/13 07:36:10;;;;;;;0.38;0.30;;;21.20;43.70;;;;;;5021770;28;20115;-64
2021/03/13 07:38:41;;;;;;;0.30;0.30;;;21.10;43.80;;;;;;5018619;28;20033;-65
2021/03/13 07:41:10;;;;;;;0.60;0.40;;;21.10;43.90;;;;;;5021530;28;20078;-64
2021/03/13 07:43:38;;;;;;;0.38;0.38;;;21.10;44.30;;;;;;5023452;28;20044;-62
2021/03/13 07:46:07;;;;;;;0.80;0.40;;;21.20;45.00;;;;;;5019153;28;20330;-64
2021/03/13 07:48:38;;;;;;;0.47;0.40;;;21.20;44.90;;;;;;5015419;28;20598;-65
2021/03/13 07:51:05;;;;;;;0.82;0.43;;;21.20;44.90;;;;;;5022944;28;20033;-64
2021/03/13 07:53:35;;;;;;;1.42;0.40;;;21.30;45.10;;;;;;5018496;28;20025;-64
2021/03/13 07:56:04;;;;;;;0.52;0.30;;;21.30;45.10;;;;;;5020378;28;20112;-63
2021/03/13 07:58:31;;;;;;;0.70;0.40;;;21.40;44.90;;;;;;5023584;28;20030;-66
2021/03/13 08:00:59;;;;;;;0.30;0.30;;;21.40;44.90;;;;;;5020989;28;20059;-64
2021/03/13 08:03:28;;;;;;;0.82;0.50;;;21.40;45.10;;;;;;5020024;28;20037;-62
2021/03/13 08:05:55;;;;;;;0.45;0.38;;;21.40;45.00;;;;;;5021217;28;20037;-62
2021/03/13 08:08:42;;;;;;;0.88;0.40;;;21.40;45.00;;;;;;5022074;28;20024;-64
2021/03/13 08:11:12;;;;;;;0.75;0.40;;;21.30;45.00;;;;;;5022003;28;20032;-63
2021/03/13 08:13:38;;;;;;;0.38;0.30;;;21.40;45.00;;;;;;5021510;28;20018;-63
2021/03/13 08:16:11;;;;;;;1.65;0.57;;;21.30;44.90;;;;;;5021891;28;20370;-61
2021/03/13 08:18:45;;;;;;;0.68;0.50;;;21.30;44.90;;;;;;5022566;28;20258;-62
2021/03/13 08:21:20;;;;;;;1.95;0.45;;;21.30;44.90;;;;;;5024389;28;20445;-63
2021/03/13 08:24:00;;;;;;;0.80;0.50;;;21.30;44.90;;;;;;5023488;28;20125;-64
2021/03/13 08:26:34;;;;;;;;;;;21.30;44.90;;;;;;5026115;28;20034;-62
2021/03/13 08:29:01;;;;;;;0.30;0.30;;;21.30;44.90;;;;;;5023970;28;19917;-62
2021/03/13 08:31:32;;;;;;;0.68;0.40;;;21.30;44.90;;;;;;5023528;28;20160;-62
2021/03/13 08:34:06;;;;;;;0.77;0.50;;;21.30;44.90;;;;;;5024532;28;20079;-63
2021/03/13 08:36:46;;;;;;;2.67;0.50;;;21.30;44.90;;;;;;5024442;28;20515;-63
2021/03/13 08:39:14;;;;;;;1.67;0.40;;;21.30;44.90;;;;;;5020840;28;20849;-61
2021/03/13 08:41:45;;;;;;;1.00;0.50;;;21.30;44.80;;;;;;5019541;28;20855;-62
2021/03/13 08:44:31;;;;;;;1.23;0.55;;;21.30;44.90;;;;;;5025136;28;20496;-65
2021/03/13 08:47:00;;;;;;;0.88;0.50;;;21.30;44.80;;;;;;5024167;28;20036;-63
2021/03/13 08:49:26;;;;;;;;;;;21.30;44.70;;;;;;5022270;28;20703;-62
2021/03/13 08:52:04;;;;;;;0.73;0.40;;;21.20;44.70;;;;;;5025695;28;19921;-62
2021/03/13 08:54:43;;;;;;;0.50;0.40;;;21.20;44.70;;;;;;5023103;28;20048;-62
2021/03/13 08:57:25;;;;;;;0.40;0.40;;;21.30;44.70;;;;;;5025483;28;21847;-62
2021/03/13 08:59:53;;;;;;;0.98;0.50;;;21.20;44.60;;;;;;5024111;28;20423;-61
2021/03/13 09:02:21;;;;;;;2.10;0.60;;;21.20;44.60;;;;;;5019730;28;20029;-62
2021/03/13 09:04:52;;;;;;;1.00;0.40;;;21.20;44.70;;;;;;5023508;28;20130;-63
2021/03/13 09:07:19;;;;;;;0.73;0.40;;;21.20;44.80;;;;;;5024819;28;20108;-64
2021/03/13 09:09:46;;;;;;;1.45;0.40;;;21.20;44.70;;;;;;5006036;28;20037;-65
2021/03/13 09:12:14;;;;;;;0.85;0.40;;;21.20;44.70;;;;;;5023433;28;20026;-64
2021/03/13 09:14:54;;;;;;;0.98;0.50;;;21.20;44.80;;;;;;5038443;28;20045;-63
2021/03/13 09:17:28;;;;;;;1.75;0.65;;;21.20;44.80;;;;;;5017042;28;20159;-62
2021/03/13 09:19:54;;;;;;;1.33;0.50;;;21.20;44.80;;;;;;5022388;28;20037;-64
2021/03/13 09:22:22;;;;;;;1.98;0.50;;;21.20;44.90;;;;;;5022449;28;20029;-65
2021/03/13 09:24:58;;;;;;;1.65;0.38;;;21.20;44.80;;;;;;5018368;28;20053;-63
2021/03/13 09:27:26;;;;;;;0.68;0.40;;;21.20;44.90;;;;;;5040432;28;20076;-65
2021/03/13 09:29:53;;;;;;;0.75;0.50;;;21.20;44.80;;;;;;5019001;28;20037;-63
2021/03/13 09:32:21;;;;;;;1.45;0.40;;;21.20;45.60;;;;;;5020016;28;20048;-60
2021/03/13 09:34:48;;;;;;;0.82;0.50;;;21.40;45.60;;;;;;5019180;28;20040;-61
2021/03/13 09:37:20;;;;;;;1.42;0.40;;;21.50;45.10;;;;;;5023008;28;20116;-63
2021/03/13 09:39:48;;;;;;;2.45;0.40;;;21.70;44.30;;;;;;5034051;28;20030;-63
2021/03/13 09:42:25;;;;;;;1.13;0.50;;;21.70;43.90;;;;;;5022018;28;20076;-62
2021/03/13 09:45:01;;;;;;;1.55;0.40;;;21.70;43.90;;;;;;5022031;28;20033;-63
2021/03/13 09:47:34;;;;;;;0.50;0.38;;;21.70;43.80;;;;;;5023008;28;20499;-62
2021/03/13 09:50:12;;;;;;;1.33;0.73;;;21.70;43.90;;;;;;5020840;28;20037;-61
2021/03/13 09:52:44;;;;;;;0.47;0.30;;;21.70;44.00;;;;;;5022857;28;20030;-62
2021/03/13 09:55:09;;;;;;;0.47;0.40;;;21.70;43.80;;;;;;5020563;28;20056;-61
2021/03/13 09:57:37;;;;;;;0.30;0.30;;;21.80;43.70;;;;;;5023759;28;20577;-64
2021/03/13 10:00:12;;;;;;;0.80;0.40;;;21.80;43.70;;;;;;5021901;28;20332;-64
2021/03/13 10:02:39;;;;;;;1.23;0.50;;;21.80;43.50;;;;;;5007890;28;20034;-63
2021/03/13 10:05:07;;;;;;;0.55;0.40;;;21.80;43.40;;;;;;5021501;28;20794;-63
2021/03/13 10:07:40;;;;;;;0.75;0.30;;;21.80;43.40;;;;;;5020376;28;20124;-66
2021/03/13 10:10:07;;;;;;;0.93;0.50;;;21.80;43.30;;;;;;5021013;28;20715;-62
2021/03/13 10:12:50;;;;;;;0.77;0.40;;;21.90;43.20;;;;;;5022607;28;20029;-64
2021/03/13 10:15:33;;;;;;;0.60;0.50;;;21.90;43.20;;;;;;5017819;28;20097;-65
2021/03/13 10:18:01;;;;;;;0.70;0.45;;;21.90;43.10;;;;;;5019834;28;20040;-63
2021/03/13 10:20:31;;;;;;;1.15;0.45;;;21.90;43.10;;;;;;5021096;28;20042;-60
2021/03/13 10:23:09;;;;;;;0.65;0.40;;;22.00;43.20;;;;;;5018651;28;20529;-63
2021/03/13 10:25:37;;;;;;;0.82;0.50;;;22.00;43.00;;;;;;5022135;28;20071;-63
2021/03/13 10:28:09;;;;;;;0.57;0.40;;;22.00;42.80;;;;;;5020775;28;20035;-64
2021/03/13 10:30:36;;;;;;;1.00;0.50;;;22.00;42.40;;;;;;5021191;28;20040;-65
2021/03/13 10:33:02;;;;;;;0.60;0.30;;;22.00;42.40;;;;;;5029535;28;20037;-63
2021/03/13 10:35:29;;;;;;;2.90;0.60;;;22.10;42.50;;;;;;5020556;28;20029;-65
2021/03/13 10:38:15;;;;;;;0.95;0.40;;;22.10;42.50;;;;;;5019378;28;20471;-61
2021/03/13 10:40:47;;;;;;;1.33;0.50;;;22.10;42.40;;;;;;5017804;28;20116;-60
2021/03/13 10:43:24;;;;;;;1.30;0.30;;;22.10;42.10;;;;;;5021048;28;20048;-64
2021/03/13 10:45:56;;;;;;;0.55;0.40;;;22.10;42.10;;;;;;5019282;28;20029;-63
2021/03/13 10:48:28;;;;;;;1.27;0.40;;;22.10;42.10;;;;;;5021759;28;20074;-64
2021/03/13 10:50:55;;;;;;;1.25;0.40;;;22.10;42.00;;;;;;5020224;28;20017;-63
2021/03/13 10:53:44;;;;;;;0.82;0.50;;;22.20;42.20;;;;;;5025928;28;20037;-64
2021/03/13 10:56:11;;;;;;;0.80;0.50;;;22.20;42.10;;;;;;5019702;28;20045;-60
2021/03/13 10:58:45;;;;;;;0.75;0.40;;;22.20;42.00;;;;;;5021240;28;20120;-60
2021/03/13 11:01:11;;;;;;;0.50;0.40;;;22.20;42.00;;;;;;5017889;28;20055;-62
2021/03/13 11:03:36;;;;;;;0.40;0.40;;;22.20;42.00;;;;;;5020718;28;20546;-62
2021/03/13 11:06:02;;;;;;;0.93;0.40;;;22.20;41.80;;;;;;5014059;28;20536;-61
2021/03/13 11:08:28;;;;;;;0.30;0.30;;;22.30;41.90;;;;;;5021853;28;21044;-65
2021/03/13 11:10:56;;;;;;;0.47;0.30;;;22.30;41.90;;;;;;5016044;28;20445;-67
2021/03/13 11:13:22;;;;;;;1.17;0.50;;;22.30;42.00;;;;;;5019814;28;20385;-67
2021/03/13 11:15:49;;;;;;;0.52;0.40;;;22.30;42.10;;;;;;5019337;28;20038;-66
2021/03/13 11:18:15;;;;;;;0.35;0.35;;;22.30;42.00;;;;;;5020276;28;20392;-66
2021/03/13 11:20:42;;;;;;;0.65;0.40;;;22.30;42.00;;;;;;5020920;28;20079;-65
2021/03/13 11:23:08;;;;;;;0.40;0.40;;;22.30;41.80;;;;;;5019910;28;20046;-65
2021/03/13 11:25:34;;;;;;;0.95;0.40;;;22.30;41.80;;;;;;5020871;28;20029;-65
2021/03/13 11:27:59;;;;;;;0.52;0.40;;;22.30;41.70;;;;;;5019625;28;20040;-65
2021/03/13 11:30:26;;;;;;;0.50;0.40;;;22.30;41.80;;;;;;5033482;28;20038;-66
2021/03/13 11:32:51;;;;;;;0.30;0.30;;;22.30;41.80;;;;;;5019096;28;20025;-65
2021/03/13 11:35:19;;;;;;;0.90;0.63;;;22.30;41.80;;;;;;5019720;28;20034;-67
2021/03/13 11:37:47;;;;;;;1.35;0.35;;;22.30;41.30;;;;;;5020632;28;20026;-65
2021/03/13 11:40:14;;;;;;;0.30;0.30;;;22.30;41.10;;;;;;5020363;28;20033;-67
2021/03/13 11:42:40;;;;;;;1.35;0.30;;;22.30;41.10;;;;;;5020554;28;21088;-65
2021/03/13 11:45:08;;;;;;;1.30;0.50;;;22.30;41.20;;;;;;5018825;28;20104;-67
2021/03/13 11:47:34;;;;;;;0.60;0.50;;;22.30;41.10;;;;;;5020095;28;20539;-66
2021/03/13 11:50:00;;;;;;;0.63;0.50;;;22.30;41.00;;;;;;5016610;28;20022;-68
2021/03/13 11:52:26;;;;;;;0.75;0.50;;;22.20;41.00;;;;;;5014917;28;20029;-65
2021/03/13 11:54:52;;;;;;;0.75;0.50;;;22.20;40.90;;;;;;5022574;28;20034;-66
2021/03/13 11:57:19;;;;;;;0.77;0.57;;;22.20;41.00;;;;;;5018372;28;20614;-69
2021/03/13 11:59:46;;;;;;;1.02;0.60;;;22.20;41.10;;;;;;5025857;28;20045;-66
2021/03/13 12:02:13;;;;;;;1.00;0.60;;;22.20;41.20;;;;;;5014502;28;20046;-66
2021/03/13 12:04:39;;;;;;;1.15;0.60;;;22.20;41.20;;;;;;5024015;28;20033;-70
2021/03/13 12:07:06;;;;;;;2.05;0.65;;;22.20;41.20;;;;;;5023278;28;20030;-64
2021/03/13 12:09:32;;;;;;;1.17;0.60;;;22.20;41.20;;;;;;5027700;28;20030;-67
2021/03/13 12:12:00;;;;;;;2.20;0.65;;;22.20;41.20;;;;;;5024471;28;20032;-67
2021/03/13 12:14:29;;;;;;;0.90;0.68;;;22.20;41.20;;;;;;5022366;28;20084;-66
2021/03/13 12:16:56;;;;;;;2.20;0.70;;;22.20;41.20;;;;;;5039648;28;20030;-68
2021/03/13 12:19:21;;;;;;;1.17;0.60;;;22.20;41.00;;;;;;5017781;28;20033;-63
2021/03/13 12:21:49;;;;;;;1.17;0.77;;;22.20;40.80;;;;;;5023378;28;20033;-64
2021/03/13 12:24:15;;;;;;;1.50;1.00;;;22.20;41.50;;;;;;5021148;28;20056;-62
2021/03/13 12:26:40;;;;;;;1.77;0.85;;;22.30;41.70;;;;;;5022443;28;20105;-63
2021/03/13 12:29:07;;;;;;;3.50;1.20;;;22.40;41.60;;;;;;5023075;28;20057;-65
2021/03/13 12:31:34;;;;;;;2.08;1.00;;;22.50;41.70;;;;;;5034462;28;20487;-63
2021/03/13 12:34:00;;;;;;;1.45;0.70;;;22.50;40.80;;;;;;5020535;28;20132;-63
2021/03/13 12:36:26;;;;;;;2.22;0.90;;;22.50;40.60;;;;;;5021670;28;20180;-63
2021/03/13 12:38:52;;;;;;;1.63;0.85;;;22.50;40.80;;;;;;5035851;28;20531;-64
2021/03/13 12:41:17;;;;;;;1.70;0.88;;;22.50;41.00;;;;;;5024416;28;20037;-63
2021/03/13 12:43:44;;;;;;;2.42;0.88;;;22.50;40.80;;;;;;5019932;28;20037;-64
2021/03/13 12:46:16;;;;;;;1.52;0.90;;;22.50;41.30;;;;;;5029323;28;20058;-67
2021/03/13 12:48:47;;;;;;;2.22;0.73;;;22.70;41.10;;;;;;5024696;28;20083;-67
2021/03/13 12:51:13;;;;;;;1.85;0.80;;;22.60;40.80;;;;;;5025287;28;20041;-66
2021/03/13 12:53:40;;;;;;;1.20;0.70;;;22.60;41.00;;;;;;5023956;28;20036;-67
2021/03/13 12:56:06;;;;;;;1.75;0.68;;;22.60;41.00;;;;;;5040876;28;20029;-66
2021/03/13 12:58:31;;;;;;;1.00;0.70;;;22.50;41.10;;;;;;5023793;28;20126;-67